Archival Weather

Chicago O'Hare International

Chicago, Illinois (KORD)

Report from: Wednesday, August 23, 2023 4:51 PM CDT
Current time: Monday, July 22, 2024 6:50 AM CDT

Current weather – Weather history – Daily summaries
Weather forecast

Temperature35.6°C (96.1°F)
Heat index46.0°C (114.7°F)
Dew point26.1°C (79.0°F)
Winds 12 kts (6.2 m/s, 13.8 mph) West-Southwest (250°)
Wind gusts 22 kts (11.3 m/s, 25.3 mph)
Visibility10 mi. (16.1 km)
Clouds Scattered clouds 25,000 ft. (7,620 m)
Altimeter29.87 in.Hg (1012 mB)
Relative humidity58 %
Density altitude2,869 ft. (874 m)
Sea-level pressure101.1 kPa (1011 mB, 29.85 in.Hg)
Remarks Automated weather observing station with precipitation discriminator
Flight conditions Visual Meteorological Conditions
Raw dataKORD 232151Z 25012G22KT 10SM SCT250 36/26 A2987 RMK AO2 SLP107 T03560261
An error has occurred. This application may no longer respond until reloaded. Reload 🗙